Time;durP1;ratioP1;P1;durP2;ratioP2;P2;SDS_P1;SDS_P2;PMS_P1;PMS_P2;Temp;Humidity;BMP_temperature;BMP_pressure;BME280_temperature;BME280_humidity;BME280_pressure;Samples;Min_cycle;Max_cycle;Signal;HPM_P1;HPM_P2
2023/08/05 00:01:50;;;;;;;4.45;0.70;;;;;;;15.93;72.02;100812.97;5041300;28;20064;-87
2023/08/05 00:04:18;;;;;;;1.35;0.75;;;;;;;15.92;72.29;100813.91;5037501;28;20048;-86
2023/08/05 00:06:45;;;;;;;9.82;1.55;;;;;;;15.71;72.16;100780.53;5037787;28;20137;-86
2023/08/05 00:09:12;;;;;;;3.70;0.93;;;;;;;15.87;72.05;100815.88;5017997;28;20058;-75
2023/08/05 00:11:39;;;;;;;1.02;0.80;;;;;;;15.86;72.00;100822.06;5035996;28;20140;-76
2023/08/05 00:14:06;;;;;;;2.42;0.73;;;;;;;15.78;72.07;100803.06;5033476;28;20050;-75
2023/08/05 00:16:33;;;;;;;1.67;0.70;;;;;;;15.83;71.97;100806.38;5035168;28;20049;-75
2023/08/05 00:19:00;;;;;;;4.32;0.65;;;;;;;15.79;72.08;100802.13;5037040;28;20060;-76
2023/08/05 00:21:28;;;;;;;2.80;0.77;;;;;;;15.78;72.15;100805.69;5030735;28;20053;-75
2023/08/05 00:23:55;;;;;;;0.98;0.60;;;;;;;15.77;72.24;100806.63;5034454;28;20057;-76
2023/08/05 00:26:22;;;;;;;0.77;0.75;;;;;;;15.74;71.90;100801.50;5034158;28;20135;-75
2023/08/05 00:28:49;;;;;;;3.35;0.80;;;;;;;15.72;72.10;100814.69;5036063;28;20049;-75
2023/08/05 00:31:16;;;;;;;2.67;0.90;;;;;;;15.70;72.03;100821.78;5034889;28;20049;-75
2023/08/05 00:33:43;;;;;;;1.73;0.70;;;;;;;15.69;71.99;100820.09;5032915;28;20041;-75
2023/08/05 00:36:09;;;;;;;1.85;0.70;;;;;;;15.67;72.13;100828.94;5032307;28;20515;-75
2023/08/05 00:38:38;;;;;;;0.93;0.70;;;;;;;15.64;72.07;100821.16;5040654;28;20045;-75
2023/08/05 00:41:05;;;;;;;0.60;0.50;;;;;;;15.62;72.12;100828.25;5044853;28;20127;-75
2023/08/05 00:43:32;;;;;;;1.58;0.70;;;;;;;15.60;72.06;100827.47;5042386;28;20053;-76
2023/08/05 00:46:01;;;;;;;0.98;0.70;;;;;;;15.60;71.94;100843.28;5041287;28;20056;-76
2023/08/05 00:48:28;;;;;;;4.43;0.60;;;;;;;15.56;71.97;100839.00;5043392;28;20406;-76
2023/08/05 00:50:56;;;;;;;2.50;0.80;;;;;;;15.51;72.16;100836.53;5040625;28;20041;-75
2023/08/05 00:53:23;;;;;;;0.90;0.60;;;;;;;15.52;72.21;100841.78;5043012;28;20049;-75
2023/08/05 00:55:53;;;;;;;1.90;0.68;;;;;;;15.51;72.05;100845.31;5040820;28;20049;-75
2023/08/05 00:58:21;;;;;;;0.88;0.88;;;;;;;15.48;72.04;100844.56;5043285;28;20044;-75
2023/08/05 01:00:48;;;;;;;1.00;0.82;;;;;;;15.47;72.11;100848.13;5042524;28;20059;-75
2023/08/05 01:03:15;;;;;;;2.85;0.70;;;;;;;15.43;72.24;100844.75;5042033;28;20044;-75
2023/08/05 01:05:44;;;;;;;2.67;0.70;;;;;;;15.43;72.38;100849.16;5042836;28;20068;-75
2023/08/05 01:08:12;;;;;;;1.33;0.70;;;;;;;15.38;72.46;100844.06;5039140;28;20033;-73
2023/08/05 01:10:40;;;;;;;1.73;0.57;;;;;;;15.39;72.09;100863.34;5042022;28;20048;-73
2023/08/05 01:13:08;;;;;;;2.05;0.70;;;;;;;15.36;72.32;100864.31;5034785;28;20047;-73
2023/08/05 01:15:35;;;;;;;1.85;0.60;;;;;;;15.34;72.27;100866.16;5044756;28;20053;-72
2023/08/05 01:18:05;;;;;;;0.60;0.60;;;;;;;15.32;72.18;100869.75;5038585;28;20055;-73
2023/08/05 01:20:36;;;;;;;1.35;0.70;;;;;;;15.30;72.15;100869.81;5041164;28;20041;-73
2023/08/05 01:23:09;;;;;;;1.17;0.60;;;;;;;15.28;72.23;100882.16;5041792;28;20502;-73
2023/08/05 01:25:39;;;;;;;1.25;0.73;;;;;;;15.25;72.21;100874.38;5038580;28;20059;-73
2023/08/05 01:28:07;;;;;;;0.90;0.70;;;;;;;15.24;72.25;100880.56;5041169;28;20045;-73
2023/08/05 01:30:35;;;;;;;4.97;0.80;;;;;;;15.21;72.18;100878.88;5041538;28;20499;-73
2023/08/05 01:33:02;;;;;;;2.53;0.70;;;;;;;15.13;72.24;100861.66;5033622;28;20529;-73
2023/08/05 01:35:29;;;;;;;1.77;0.70;;;;;;;15.19;72.18;100874.59;5038290;28;20059;-73
2023/08/05 01:37:56;;;;;;;1.23;0.90;;;;;;;15.15;72.25;100867.75;5043659;28;20413;-73
2023/08/05 01:40:28;;;;;;;2.97;0.90;;;;;;;15.13;72.37;100873.03;5040337;28;20160;-72
2023/08/05 01:42:56;;;;;;;1.35;0.80;;;;;;;15.12;72.22;100873.13;5044241;28;20849;-73
2023/08/05 01:45:23;;;;;;;2.67;0.80;;;;;;;15.10;72.24;100878.41;5033243;28;20790;-73
2023/08/05 01:47:50;;;;;;;0.90;0.68;;;;;;;15.09;72.33;100875.84;5041122;28;20045;-73
2023/08/05 01:50:17;;;;;;;0.70;0.70;;;;;;;15.05;72.19;100881.22;5038625;28;20054;-73
2023/08/05 01:52:44;;;;;;;1.60;0.70;;;;;;;15.04;72.30;100884.75;5042592;28;20706;-72
2023/08/05 01:55:11;;;;;;;1.48;0.75;;;;;;;14.99;72.20;100884.03;5037167;28;20046;-73
2023/08/05 01:57:38;;;;;;;0.93;0.90;;;;;;;14.99;72.30;100885.81;5043421;28;20051;-73
2023/08/05 02:00:08;;;;;;;2.95;0.82;;;;;;;14.98;72.29;100890.22;5037405;28;20048;-73
2023/08/05 02:02:35;;;;;;;1.38;1.08;;;;;;;14.97;72.36;100898.16;5042692;28;20128;-73
2023/08/05 02:05:02;;;;;;;0.63;0.60;;;;;;;14.95;72.34;100894.75;5038580;28;20051;-73
2023/08/05 02:07:29;;;;;;;0.70;0.70;;;;;;;14.93;72.26;100897.41;5036376;28;20410;-73
2023/08/05 02:09:55;;;;;;;0.80;0.80;;;;;;;14.92;72.21;100898.34;5021140;28;20057;-72
2023/08/05 02:12:22;;;;;;;1.48;0.77;;;;;;;14.90;72.38;100894.91;5043091;28;20045;-73
2023/08/05 02:14:49;;;;;;;1.00;0.60;;;;;;;14.87;72.29;100892.38;5036550;28;20051;-73
2023/08/05 02:17:18;;;;;;;2.15;0.85;;;;;;;14.85;72.40;100900.31;5039371;28;20049;-73
2023/08/05 02:19:44;;;;;;;0.90;0.80;;;;;;;14.83;72.34;100896.03;5037911;28;20040;-73
2023/08/05 02:22:11;;;;;;;0.52;0.52;;;;;;;14.82;72.10;100896.94;5037809;28;20045;-74
2023/08/05 02:24:38;;;;;;;3.22;0.70;;;;;;;14.81;72.27;100892.59;5037474;28;20041;-74
2023/08/05 02:27:06;;;;;;;2.83;0.98;;;;;;;14.79;72.29;100891.78;5029259;28;20053;-76
2023/08/05 02:29:33;;;;;;;0.85;0.60;;;;;;;14.76;72.18;100895.38;5041994;28;20055;-74
2023/08/05 02:32:00;;;;;;;1.52;0.88;;;;;;;14.74;72.39;100891.06;5038993;28;20787;-75
2023/08/05 02:34:29;;;;;;;1.95;0.90;;;;;;;14.72;72.20;100898.16;5036469;28;20503;-75
2023/08/05 02:36:55;;;;;;;0.60;0.60;;;;;;;14.67;72.13;100897.47;5039465;28;20055;-75
2023/08/05 02:39:22;;;;;;;1.02;0.95;;;;;;;14.69;72.17;100908.78;5035369;28;20048;-75
2023/08/05 02:41:49;;;;;;;3.17;0.73;;;;;;;14.66;72.19;100908.88;5038774;28;20038;-76
2023/08/05 02:44:16;;;;;;;0.93;0.63;;;;;;;14.65;72.38;100917.66;5014633;28;20057;-75
2023/08/05 02:46:43;;;;;;;8.07;1.45;;;;;;;14.64;72.42;100922.06;5042770;28;20045;-76
2023/08/05 02:49:10;;;;;;;5.68;0.70;;;;;;;14.61;72.40;100914.28;5034080;28;20063;-76
2023/08/05 02:51:39;;;;;;;0.82;0.68;;;;;;;14.59;72.42;100916.97;5032590;28;20052;-76
2023/08/05 02:54:06;;;;;;;7.82;0.70;;;;;;;14.57;72.47;100915.28;5040939;28;20045;-75
2023/08/05 02:56:34;;;;;;;3.17;0.70;;;;;;;14.54;72.51;100908.38;5040007;28;20073;-76
2023/08/05 02:59:01;;;;;;;0.85;0.63;;;;;;;14.51;72.39;100903.16;5039145;28;20514;-75
2023/08/05 03:01:27;;;;;;;4.80;1.00;;;;;;;14.48;72.45;100911.16;5042156;28;20065;-75
2023/08/05 03:03:54;;;;;;;1.25;0.75;;;;;;;14.49;72.48;100914.66;5035207;28;20045;-76
2023/08/05 03:06:21;;;;;;;1.33;0.80;;;;;;;14.46;72.53;100913.00;5041667;28;20041;-75
2023/08/05 03:08:49;;;;;;;1.67;0.85;;;;;;;14.45;72.31;100910.41;5038707;28;20056;-76
2023/08/05 03:11:17;;;;;;;0.88;0.80;;;;;;;14.44;72.70;100925.31;5036035;28;20057;-76
2023/08/05 03:13:43;;;;;;;1.00;1.00;;;;;;;14.42;72.74;100921.88;5038016;28;20044;-76
2023/08/05 03:16:12;;;;;;;0.90;0.70;;;;;;;14.42;72.87;100919.25;5039347;28;20053;-76
2023/08/05 03:18:39;;;;;;;2.47;0.70;;;;;;;14.42;72.97;100926.28;5038761;28;20052;-76
2023/08/05 03:21:06;;;;;;;4.82;1.10;;;;;;;14.40;72.88;100926.34;5039406;28;20053;-75
2023/08/05 03:23:33;;;;;;;1.35;0.90;;;;;;;14.38;72.91;100928.16;5043649;28;20072;-76
2023/08/05 03:26:02;;;;;;;0.75;0.75;;;;;;;14.38;73.07;100936.03;5042601;28;20046;-75
2023/08/05 03:28:28;;;;;;;2.47;0.70;;;;;;;14.35;73.04;100930.88;5038120;28;20083;-76
2023/08/05 03:30:56;;;;;;;1.58;0.77;;;;;;;14.35;72.94;100944.88;5039371;28;20045;-77
2023/08/05 03:33:23;;;;;;;0.80;0.80;;;;;;;14.36;73.17;100940.47;5042491;28;20041;-77
2023/08/05 03:35:50;;;;;;;1.00;0.75;;;;;;;14.31;73.24;100945.00;5044185;28;20543;-76
2023/08/05 03:38:17;;;;;;;1.20;1.10;;;;;;;14.32;73.27;100946.75;5041596;28;20053;-76
2023/08/05 03:40:44;;;;;;;4.47;0.80;;;;;;;14.33;73.40;100948.44;5043805;28;20056;-76
2023/08/05 03:43:12;;;;;;;2.58;0.73;;;;;;;14.32;73.40;100952.84;5040046;28;20103;-75
2023/08/05 03:45:39;;;;;;;0.98;0.98;;;;;;;14.32;73.36;100957.25;5042129;28;20141;-76
2023/08/05 03:48:06;;;;;;;2.55;0.82;;;;;;;14.32;73.40;100970.38;5041798;28;20052;-75
2023/08/05 03:50:33;;;;;;;1.15;0.90;;;;;;;14.32;73.57;100967.75;5045420;28;20426;-76
2023/08/05 03:53:00;;;;;;;1.80;1.00;;;;;;;14.32;73.81;100970.38;5044339;28;20056;-76
2023/08/05 03:55:27;;;;;;;4.03;0.85;;;;;;;14.30;73.81;100966.94;5039781;28;20053;-76
2023/08/05 03:57:53;;;;;;;2.90;0.93;;;;;;;14.32;73.98;100979.13;5042488;28;20130;-76
2023/08/05 04:00:22;;;;;;;5.28;1.00;;;;;;;14.25;74.29;100971.47;5041720;28;20051;-76
2023/08/05 04:02:49;;;;;;;2.17;0.90;;;;;;;14.34;74.43;100986.94;5041158;28;20049;-77
2023/08/05 04:05:15;;;;;;;0.80;0.80;;;;;;;14.35;74.39;100993.94;5040978;28;20041;-77
2023/08/05 04:07:42;;;;;;;2.38;1.27;;;;;;;14.35;74.72;100986.06;5039908;28;20044;-76
2023/08/05 04:10:12;;;;;;;1.63;0.90;;;;;;;14.24;74.69;100964.50;5042283;28;20044;-76
2023/08/05 04:12:38;;;;;;;1.27;1.10;;;;;;;14.38;74.99;100996.47;5040316;28;20538;-75
2023/08/05 04:15:08;;;;;;;0.98;0.98;;;;;;;14.39;75.30;100987.66;5046778;28;20515;-76
2023/08/05 04:17:36;;;;;;;1.67;0.90;;;;;;;14.40;75.34;100982.38;5039357;28;20128;-76
2023/08/05 04:20:03;;;;;;;1.73;1.27;;;;;;;14.44;75.70;100987.53;5041152;28;20051;-76
2023/08/05 04:22:30;;;;;;;2.50;1.20;;;;;;;14.46;76.08;100980.44;5039674;28;20057;-76
2023/08/05 04:24:57;;;;;;;2.72;1.50;;;;;;;14.48;76.54;100979.50;5040116;28;20111;-76
2023/08/05 04:27:25;;;;;;;2.17;1.98;;;;;;;14.52;77.25;100978.53;5043465;28;20055;-76
2023/08/05 04:29:51;;;;;;;2.42;2.00;;;;;;;14.57;77.46;100973.13;5039114;28;20602;-76
2023/08/05 04:32:18;;;;;;;2.13;1.92;;;;;;;14.60;77.84;100968.66;5044409;28;20132;-76
2023/08/05 04:34:47;;;;;;;2.25;2.08;;;;;;;14.67;78.36;100968.44;5039637;28;20051;-76
2023/08/05 04:37:17;;;;;;;2.30;2.20;;;;;;;14.73;78.42;100973.50;5045727;28;20055;-76
2023/08/05 04:39:44;;;;;;;2.25;2.15;;;;;;;14.79;78.76;100973.28;5044303;28;20052;-77
2023/08/05 04:42:11;;;;;;;2.10;1.65;;;;;;;14.84;78.92;100974.00;5039677;28;20482;-76
2023/08/05 04:44:40;;;;;;;3.30;2.45;;;;;;;14.94;79.21;100978.06;5042116;28;20057;-76
2023/08/05 04:47:07;;;;;;;2.63;2.13;;;;;;;15.02;79.06;100973.38;5040391;28;20605;-76
2023/08/05 04:49:34;;;;;;;2.40;2.28;;;;;;;15.10;79.03;100967.00;5041341;28;20057;-75
2023/08/05 04:52:06;;;;;;;3.78;2.00;;;;;;;15.22;79.18;100962.19;5037958;28;20049;-75
2023/08/05 04:54:36;;;;;;;2.22;1.77;;;;;;;15.32;78.86;100970.63;5039017;28;20137;-75
2023/08/05 04:57:04;;;;;;;1.98;1.88;;;;;;;15.43;79.01;100957.09;5039990;28;20041;-76
2023/08/05 04:59:31;;;;;;;5.15;1.75;;;;;;;15.52;78.85;100960.25;5042072;28;20059;-75
2023/08/05 05:01:58;;;;;;;2.08;1.88;;;;;;;15.63;78.73;100956.38;5037276;28;20045;-75
2023/08/05 05:04:25;;;;;;;1.92;1.83;;;;;;;15.73;78.85;100955.13;5041298;28;20056;-75
2023/08/05 05:06:52;;;;;;;2.72;1.67;;;;;;;15.83;78.77;100964.44;5032589;28;20767;-75
2023/08/05 05:09:20;;;;;;;3.05;2.70;;;;;;;15.92;79.19;100961.44;5041454;28;20518;-75
2023/08/05 05:11:47;;;;;;;2.28;2.08;;;;;;;16.04;78.99;100959.25;5036817;28;20044;-76
2023/08/05 05:14:14;;;;;;;2.35;1.95;;;;;;;16.13;79.07;100972.06;5040547;28;20049;-75
2023/08/05 05:16:41;;;;;;;2.88;2.67;;;;;;;16.21;78.94;100972.66;5035574;28;20041;-75
2023/08/05 05:19:09;;;;;;;2.33;2.22;;;;;;;16.36;79.10;100979.97;5040679;28;20702;-75
2023/08/05 05:21:36;;;;;;;2.20;2.10;;;;;;;16.50;78.73;100991.72;5036540;28;20441;-75
2023/08/05 05:24:03;;;;;;;2.00;1.90;;;;;;;16.62;78.75;100983.31;5040411;28;20083;-75
2023/08/05 05:26:31;;;;;;;2.50;2.25;;;;;;;16.74;78.34;100990.75;5038288;28;20044;-75
2023/08/05 05:28:58;;;;;;;3.45;1.85;;;;;;;16.86;77.91;100992.91;5037744;28;20055;-75
2023/08/05 05:31:25;;;;;;;2.28;1.92;;;;;;;16.99;77.70;100990.66;5037270;28;20044;-75
2023/08/05 05:33:52;;;;;;;2.28;2.08;;;;;;;17.09;77.36;100985.84;5036979;28;20083;-76
2023/08/05 05:36:19;;;;;;;4.45;1.83;;;;;;;17.22;77.10;100991.47;5039989;28;20044;-75
2023/08/05 05:38:46;;;;;;;2.35;1.75;;;;;;;17.30;76.98;100984.94;5035511;28;20047;-76
2023/08/05 05:41:13;;;;;;;1.85;1.75;;;;;;;17.20;76.67;100959.84;5040970;28;20045;-75
2023/08/05 05:43:42;;;;;;;1.98;1.77;;;;;;;17.49;76.73;101000.81;5038983;28;20136;-75
2023/08/05 05:46:09;;;;;;;1.88;1.58;;;;;;;17.57;76.34;101003.13;5035942;28;20052;-75
2023/08/05 05:48:36;;;;;;;1.92;1.83;;;;;;;17.65;76.20;100995.72;5037261;28;20049;-77
2023/08/05 05:51:03;;;;;;;1.38;1.15;;;;;;;17.73;76.03;101000.66;5043337;28;20414;-76
2023/08/05 05:53:30;;;;;;;2.40;1.30;;;;;;;17.79;75.69;101000.44;5035893;28;20056;-76
2023/08/05 05:55:56;;;;;;;1.73;1.40;;;;;;;17.84;75.73;101001.06;5041074;28;20068;-76
2023/08/05 05:58:23;;;;;;;1.42;1.20;;;;;;;17.92;75.30;101003.38;5038255;28;20045;-76
2023/08/05 06:00:56;;;;;;;1.33;1.23;;;;;;;17.97;75.05;100996.09;5039300;28;20601;-76
2023/08/05 06:03:23;;;;;;;1.33;1.13;;;;;;;17.93;74.81;100984.81;5035914;28;20049;-76
2023/08/05 06:05:51;;;;;;;3.70;1.23;;;;;;;18.09;74.66;100999.94;5039291;28;20418;-77
2023/08/05 06:08:18;;;;;;;2.83;1.10;;;;;;;18.09;74.38;100994.66;5040813;28;20483;-77
2023/08/05 06:10:45;;;;;;;5.03;1.38;;;;;;;18.15;74.39;100989.09;5040971;28;20046;-77
2023/08/05 06:13:12;;;;;;;2.38;1.33;;;;;;;18.18;74.06;100986.31;5041737;28;20712;-77
2023/08/05 06:15:41;;;;;;;6.50;1.83;;;;;;;18.22;73.73;100981.75;5041705;28;20075;-77
2023/08/05 06:18:10;;;;;;;2.55;1.40;;;;;;;18.24;73.37;100978.06;5035686;28;20045;-77
2023/08/05 06:20:38;;;;;;;3.40;1.17;;;;;;;18.27;73.32;100977.97;5046742;28;20415;-77
2023/08/05 06:23:06;;;;;;;3.22;1.00;;;;;;;18.29;73.06;100977.88;5039081;28;20487;-77
2023/08/05 06:25:33;;;;;;;3.95;1.33;;;;;;;18.33;73.27;100976.81;5046464;28;20049;-77
2023/08/05 06:28:00;;;;;;;3.38;1.30;;;;;;;18.32;72.82;100964.50;5042106;28;20052;-75
2023/08/05 06:30:27;;;;;;;5.07;2.10;;;;;;;18.33;72.76;100955.66;5042242;28;20045;-77
2023/08/05 06:32:54;;;;;;;2.85;1.08;;;;;;;18.38;72.54;100958.91;5039068;28;20498;-77
2023/08/05 06:35:22;;;;;;;2.70;1.20;;;;;;;18.43;72.34;100970.13;5038580;28;20045;-76
2023/08/05 06:37:49;;;;;;;2.75;1.05;;;;;;;18.44;72.47;100974.47;5041607;28;20045;-75
2023/08/05 06:40:16;;;;;;;1.40;0.90;;;;;;;18.43;72.48;100968.34;5040996;28;20049;-77
2023/08/05 06:42:43;;;;;;;3.08;1.00;;;;;;;18.48;72.11;100976.06;5035977;28;20057;-76
2023/08/05 06:45:11;;;;;;;1.48;1.13;;;;;;;18.52;72.34;100976.75;5040439;28;20497;-76
2023/08/05 06:47:38;;;;;;;2.67;1.75;;;;;;;18.58;72.73;100992.34;5038902;28;20570;-77
2023/08/05 06:50:07;;;;;;;3.42;1.23;;;;;;;18.60;72.40;100988.69;5041638;28;20047;-77
2023/08/05 06:52:35;;;;;;;1.98;1.02;;;;;;;18.64;72.17;100992.91;5038122;28;20069;-77
2023/08/05 06:55:03;;;;;;;5.32;1.40;;;;;;;18.65;72.12;100991.97;5036146;28;20051;-76
2023/08/05 06:57:30;;;;;;;3.40;1.42;;;;;;;18.67;72.15;100997.22;5042686;28;20045;-85
2023/08/05 06:59:58;;;;;;;2.85;1.52;;;;;;;18.67;72.24;101007.78;5042871;28;20401;-85
2023/08/05 07:02:25;;;;;;;4.18;1.17;;;;;;;18.66;72.07;101012.19;5038912;28;20088;-84
2023/08/05 07:04:52;;;;;;;3.45;1.65;;;;;;;18.56;72.17;100996.88;5044105;28;20442;-83
2023/08/05 07:07:19;;;;;;;2.22;1.52;;;;;;;18.62;72.16;101008.00;5032847;28;20068;-80
2023/08/05 07:09:48;;;;;;;5.03;1.73;;;;;;;18.66;72.00;101017.50;5035659;28;20046;-80
2023/08/05 07:12:15;;;;;;;3.83;1.50;;;;;;;18.68;71.93;101017.44;5042432;28;20051;-81
2023/08/05 07:14:44;;;;;;;2.97;1.33;;;;;;;18.74;71.73;101026.91;5043066;28;20132;-81
2023/08/05 07:17:11;;;;;;;3.40;1.50;;;;;;;18.72;71.98;101015.50;5048272;28;20049;-80
2023/08/05 07:19:38;;;;;;;3.55;1.35;;;;;;;18.77;71.85;101027.59;5040176;28;20055;-80
2023/08/05 07:22:06;;;;;;;3.80;1.20;;;;;;;18.72;72.00;101013.69;5042486;28;20049;-81
2023/08/05 07:24:36;;;;;;;3.05;1.67;;;;;;;18.82;72.22;101030.03;5046637;28;20049;-76
2023/08/05 07:27:06;;;;;;;2.53;1.50;;;;;;;18.75;72.07;101015.38;5041285;28;20040;-76
2023/08/05 07:29:34;;;;;;;6.15;1.30;;;;;;;18.77;72.03;101018.81;5037382;28;20069;-75
2023/08/05 07:32:03;;;;;;;2.13;1.38;;;;;;;18.53;72.40;100970.56;5032581;28;20136;-76
2023/08/05 07:34:31;;;;;;;3.53;1.10;;;;;;;18.51;72.02;100970.63;5036385;28;20063;-76
2023/08/05 07:36:58;;;;;;;12.05;1.92;;;;;;;18.92;72.63;101039.22;5039754;28;20045;-77
2023/08/05 07:39:30;;;;;;;2.53;1.75;;;;;;;19.02;72.63;101029.06;5042532;28;20122;-77
2023/08/05 07:42:00;;;;;;;4.03;1.52;;;;;;;19.10;72.45;101029.53;5028190;28;20049;-76
2023/08/05 07:44:30;;;;;;;9.07;1.58;;;;;;;19.14;72.40;101016.97;5041146;28;20053;-77
2023/08/05 07:46:58;;;;;;;4.25;1.40;;;;;;;19.19;72.18;101012.31;5036548;28;20057;-77
2023/08/05 07:49:26;;;;;;;4.45;1.45;;;;;;;19.33;72.59;101028.38;5044897;28;20102;-77
2023/08/05 07:51:53;;;;;;;10.70;2.00;;;;;;;19.44;72.46;101035.75;5038531;28;20055;-76
2023/08/05 07:54:20;;;;;;;2.88;1.45;;;;;;;19.53;72.20;101045.88;5038417;28;20782;-76
2023/08/05 07:56:48;;;;;;;9.02;1.80;;;;;;;19.62;71.56;101044.56;5037708;28;20051;-76
2023/08/05 07:59:17;;;;;;;3.55;1.50;;;;;;;19.73;71.81;101048.38;5038652;28;20067;-76
2023/08/05 08:01:45;;;;;;;3.65;1.10;;;;;;;19.80;71.58;101042.75;5038966;28;20069;-76
2023/08/05 08:04:14;;;;;;;1.30;1.20;;;;;;;19.98;71.32;101057.72;5035157;28;20080;-76
2023/08/05 08:06:43;;;;;;;1.58;1.00;;;;;;;20.11;71.49;101052.59;5038762;28;20082;-76
2023/08/05 08:09:11;;;;;;;7.60;1.17;;;;;;;20.23;70.22;101059.88;5036957;28;20059;-78
2023/08/05 08:11:38;;;;;;;4.28;1.23;;;;;;;20.35;70.37;101058.34;5037534;28;20052;-78
2023/08/05 08:14:05;;;;;;;8.48;1.55;;;;;;;20.45;70.41;101063.06;5040561;28;20451;-79
2023/08/05 08:16:32;;;;;;;4.63;1.05;;;;;;;20.56;69.61;101062.50;5044939;28;20049;-79
2023/08/05 08:19:02;;;;;;;3.80;1.25;;;;;;;20.64;69.00;101054.97;5041244;28;20132;-75
2023/08/05 08:21:29;;;;;;;2.45;1.40;;;;;;;20.68;68.88;101058.31;5041146;28;20719;-74
2023/08/05 08:23:56;;;;;;;2.08;0.95;;;;;;;20.75;68.66;101059.69;5038171;28;20057;-74
2023/08/05 08:26:23;;;;;;;6.03;1.00;;;;;;;20.72;68.05;101043.06;5035610;28;20063;-75
2023/08/05 08:28:49;;;;;;;5.07;1.20;;;;;;;20.85;68.34;101076.78;5038936;28;20047;-74
2023/08/05 08:31:16;;;;;;;5.30;1.00;;;;;;;20.91;67.08;101066.78;5036941;28;20053;-74
2023/08/05 08:33:44;;;;;;;5.47;1.23;;;;;;;20.96;67.23;101064.72;5040529;28;20053;-74
2023/08/05 08:36:12;;;;;;;5.95;1.48;;;;;;;21.03;66.50;101068.72;5033707;28;20045;-74
2023/08/05 08:38:39;;;;;;;4.55;1.23;;;;;;;21.08;65.84;101058.69;5040859;28;20067;-75
2023/08/05 08:41:06;;;;;;;4.78;1.00;;;;;;;21.13;65.01;101056.63;5034419;28;20051;-74
2023/08/05 08:43:33;;;;;;;5.43;1.00;;;;;;;21.15;65.09;101062.72;5036226;28;20499;-74
2023/08/05 08:46:01;;;;;;;4.63;0.70;;;;;;;21.19;64.56;101058.94;5040441;28;20063;-75
2023/08/05 08:48:29;;;;;;;7.15;1.10;;;;;;;21.20;64.29;101065.09;5036654;28;20043;-75
2023/08/05 08:50:57;;;;;;;4.47;1.10;;;;;;;21.24;64.08;101067.50;5031737;28;20088;-75
2023/08/05 08:53:27;;;;;;;5.50;1.10;;;;;;;21.20;63.26;101065.09;5036766;28;20712;-75
2023/08/05 08:55:54;;;;;;;10.70;0.90;;;;;;;21.28;64.28;101090.25;5038771;28;20122;-74
2023/08/05 08:58:21;;;;;;;4.78;1.00;;;;;;;21.28;64.67;101082.28;5035961;28;20071;-74
2023/08/05 09:00:48;;;;;;;14.63;1.48;;;;;;;21.32;64.17;101070.56;5038393;28;20048;-75
2023/08/05 09:03:16;;;;;;;2.45;0.88;;;;;;;21.36;63.42;101086.31;5038638;28;20045;-75
2023/08/05 09:05:46;;;;;;;2.13;0.65;;;;;;;21.39;62.85;101083.50;5038963;28;20418;-75
2023/08/05 09:08:13;;;;;;;4.22;1.02;;;;;;;21.41;63.04;101082.47;5037169;28;20052;-75
2023/08/05 09:10:44;;;;;;;5.35;0.90;;;;;;;21.44;63.06;101074.31;5037719;28;20395;-76
2023/08/05 09:13:11;;;;;;;6.53;1.02;;;;;;;21.47;61.87;101078.59;5035517;28;20107;-75
2023/08/05 09:15:39;;;;;;;4.00;1.20;;;;;;;21.40;62.25;101063.94;5032774;28;20042;-77
2023/08/05 09:18:08;;;;;;;8.73;1.08;;;;;;;21.51;61.84;101080.13;5039930;28;20050;-75
2023/08/05 09:20:36;;;;;;;7.55;0.95;;;;;;;21.55;62.06;101073.69;5035891;28;20048;-75
2023/08/05 09:23:05;;;;;;;5.53;1.00;;;;;;;21.59;62.01;101072.53;5037881;28;20049;-75
2023/08/05 09:25:33;;;;;;;5.43;0.82;;;;;;;21.64;61.95;101070.47;5035176;28;20052;-75
2023/08/05 09:28:01;;;;;;;6.45;0.60;;;;;;;21.69;61.30;101076.38;5023809;28;20060;-76
2023/08/05 09:30:28;;;;;;;7.18;1.00;;;;;;;21.70;61.50;101071.91;5012116;28;20041;-75
2023/08/05 09:32:55;;;;;;;5.80;1.13;;;;;;;21.69;61.78;101060.41;5017183;28;20056;-75
2023/08/05 09:35:24;;;;;;;4.95;1.00;;;;;;;21.82;60.80;101062.31;5012583;28;20048;-76
2023/08/05 09:37:52;;;;;;;6.75;1.10;;;;;;;21.81;61.33;101056.16;5012685;28;20055;-75
2023/08/05 09:40:22;;;;;;;5.75;1.13;;;;;;;21.90;60.69;101070.69;5012452;28;20045;-76
2023/08/05 09:42:50;;;;;;;3.72;1.02;;;;;;;21.94;60.57;101072.22;5010506;28;20053;-76
2023/08/05 09:45:20;;;;;;;7.88;0.80;;;;;;;21.93;60.57;101060.72;5011454;28;20401;-75
2023/08/05 09:47:49;;;;;;;5.53;1.30;;;;;;;21.98;60.35;101058.63;5013520;28;20050;-75
2023/08/05 09:50:18;;;;;;;5.72;0.93;;;;;;;22.00;60.06;101058.56;5007702;28;20045;-75
2023/08/05 09:52:49;;;;;;;3.05;0.98;;;;;;;22.07;60.07;101072.31;5012717;28;20051;-76
2023/08/05 09:55:17;;;;;;;6.00;0.82;;;;;;;22.09;60.44;101065.97;5012211;28;20416;-76
2023/08/05 09:57:45;;;;;;;6.28;1.73;;;;;;;22.12;59.76;101065.75;5011008;28;20050;-75
2023/08/05 10:00:14;;;;;;;12.32;2.05;;;;;;;22.15;59.49;101070.88;5013861;28;20054;-76
2023/08/05 10:02:44;;;;;;;5.28;0.88;;;;;;;22.17;59.10;101070.78;5012647;28;20049;-76
2023/08/05 10:05:12;;;;;;;2.35;0.73;;;;;;;22.19;58.97;101072.44;5009649;28;20046;-75
2023/08/05 10:07:40;;;;;;;7.50;1.20;;;;;;;22.17;58.73;101062.78;5011010;28;20049;-76
2023/08/05 10:10:09;;;;;;;5.90;0.85;;;;;;;22.24;58.67;101061.50;5010281;28;20096;-76
2023/08/05 10:12:41;;;;;;;6.30;0.68;;;;;;;22.26;58.48;101062.28;5010908;28;20045;-76
2023/08/05 10:15:14;;;;;;;12.90;3.97;;;;;;;22.16;58.62;101035.34;5015284;28;20048;-75
2023/08/05 10:17:43;;;;;;;8.25;0.95;;;;;;;22.33;58.69;101054.75;5012390;28;20480;-76
2023/08/05 10:20:13;;;;;;;7.68;0.82;;;;;;;22.35;57.70;101043.06;5012389;28;20048;-77
2023/08/05 10:22:40;;;;;;;4.32;0.77;;;;;;;22.38;58.07;101050.84;5013339;28;20546;-76
2023/08/05 10:25:08;;;;;;;3.80;0.60;;;;;;;22.36;57.83;101043.91;5017746;28;20053;-76
2023/08/05 10:27:35;;;;;;;4.18;0.85;;;;;;;22.37;57.93;101053.59;5010606;28;20415;-83
2023/08/05 10:30:07;;;;;;;7.15;0.98;;;;;;;22.36;57.31;101062.53;5016255;28;20451;-83
2023/08/05 10:32:35;;;;;;;5.63;0.90;;;;;;;22.26;57.45;101045.47;5013204;28;20037;-83
2023/08/05 10:35:28;;;;;;;6.07;0.90;;;;;;;22.35;58.04;101067.00;5019538;28;20084;-84
2023/08/05 10:38:09;;;;;;;2.58;0.70;;;;;;;22.35;57.45;101071.50;5010680;28;20049;-78
2023/08/05 10:40:42;;;;;;;5.43;1.13;;;;;;;22.22;57.77;101053.59;5010076;28;20041;-77
2023/08/05 10:43:10;;;;;;;4.15;0.70;;;;;;;22.28;56.88;101070.16;5011103;28;20048;-80
2023/08/05 10:45:41;;;;;;;5.28;0.70;;;;;;;22.26;57.37;101062.28;5013533;28;20058;-78
2023/08/05 10:48:10;;;;;;;2.92;0.80;;;;;;;22.21;57.27;101059.91;5019801;28;20046;-78
2023/08/05 10:50:41;;;;;;;4.95;0.95;;;;;;;22.25;57.28;101059.69;5015953;28;20424;-77
2023/08/05 10:53:10;;;;;;;5.75;0.80;;;;;;;22.23;56.93;101055.34;5017245;28;20507;-79
2023/08/05 10:55:47;;;;;;;4.03;0.70;;;;;;;22.18;56.82;101036.13;5017519;28;20045;-77
2023/08/05 10:58:15;;;;;;;10.23;1.25;;;;;;;22.14;57.10;101037.25;5020103;28;20050;-77
2023/08/05 11:00:44;;;;;;;3.80;1.05;;;;;;;22.20;57.35;101041.38;5019356;28;20058;-76
2023/08/05 11:03:25;;;;;;;6.57;0.82;;;;;;;22.18;57.48;101046.78;5017540;28;20046;-78
2023/08/05 11:05:55;;;;;;;7.40;0.90;;;;;;;22.14;57.89;101031.06;5019874;28;20050;-77
2023/08/05 11:08:22;;;;;;;5.70;1.92;;;;;;;22.19;56.76;101040.50;5015166;28;20045;-78
2023/08/05 11:10:49;;;;;;;4.78;1.85;;;;;;;22.19;57.27;101040.50;5017658;28;20053;-78
2023/08/05 11:13:17;;;;;;;3.85;0.77;;;;;;;22.18;57.02;101033.47;5015645;28;20046;-77
2023/08/05 11:15:44;;;;;;;4.55;1.10;;;;;;;22.21;57.21;101043.06;5014102;28;20172;-77
2023/08/05 11:18:11;;;;;;;4.40;0.90;;;;;;;22.20;57.14;101047.56;5021283;28;20160;-76
2023/08/05 11:20:39;;;;;;;4.03;0.70;;;;;;;22.21;56.56;101048.41;5011145;28;20041;-77
2023/08/05 11:23:08;;;;;;;5.65;0.98;;;;;;;22.21;56.48;101051.91;5011646;28;20045;-80
2023/08/05 11:25:35;;;;;;;5.10;0.82;;;;;;;22.12;57.47;101039.16;5019299;28;20045;-79
2023/08/05 11:28:06;;;;;;;9.55;0.93;;;;;;;22.19;57.14;101050.28;5019835;28;20488;-79